< < Back
Terminal Aerodrome Forecast


Current Version              Previous Versions:   1  2  3  4  5  6  7  8  9  

Terminal Aerodrome Forecast

612
FTUS42 KCAE 050520
TAFCAE
TAF
KCAE 050520Z 0506/0606 23005KT P6SM SCT120 BKN250
     FM051300 22008KT P6SM SCT040 BKN120
     FM051600 22011G16KT P6SM VCSH SCT040 BKN120
     FM060000 21008KT P6SM BKN100=



Latest METAR

981
SAUS80 KWBC 051700 RRA
MTRCAE
METAR KCAE 051656Z 23009KT 10SM SCT048 SCT200 31/18 A3011 RMK AO2 SLP191
T03110183


USA.gov is the U.S. government's official web portal to all federal, state and local government web resources and services.